createdAt,value
2018-10-09T00:02:04.749Z,9.90
2018-10-09T00:04:33.546Z,9.80
2018-10-09T00:07:02.200Z,9.70
2018-10-09T00:09:30.887Z,9.80
2018-10-09T00:11:59.544Z,9.70
2018-10-09T00:14:28.226Z,9.70
2018-10-09T00:16:56.925Z,9.70
2018-10-09T00:19:25.652Z,9.70
2018-10-09T00:21:54.410Z,9.60
2018-10-09T00:24:23.377Z,9.60
2018-10-09T00:26:52.018Z,9.60
2018-10-09T00:29:20.704Z,9.60
2018-10-09T00:31:49.592Z,9.50
2018-10-09T00:34:18.281Z,9.50
2018-10-09T00:36:46.949Z,9.50
2018-10-09T00:39:15.676Z,9.50
2018-10-09T00:41:44.380Z,9.40
2018-10-09T00:44:13.071Z,9.40
2018-10-09T00:46:41.942Z,9.40
2018-10-09T00:49:10.672Z,9.40
2018-10-09T00:51:39.485Z,9.40
2018-10-09T00:54:08.220Z,9.40
2018-10-09T00:56:37.067Z,9.40
2018-10-09T00:59:06.058Z,9.40
2018-10-09T01:01:34.775Z,9.50
2018-10-09T01:04:03.482Z,9.40
2018-10-09T01:06:32.163Z,9.40
2018-10-09T01:09:00.906Z,9.40
2018-10-09T01:11:29.531Z,9.30
2018-10-09T01:13:58.199Z,9.40
2018-10-09T01:16:26.832Z,9.40
2018-10-09T01:18:55.521Z,9.30
2018-10-09T01:21:24.247Z,9.30
2018-10-09T01:23:53.015Z,9.40
2018-10-09T01:26:21.905Z,9.40
2018-10-09T01:28:50.614Z,9.40
2018-10-09T01:31:19.377Z,9.40
2018-10-09T01:33:48.314Z,9.40
2018-10-09T01:36:17.034Z,9.30
2018-10-09T01:38:45.748Z,9.30
2018-10-09T01:41:14.492Z,9.40
2018-10-09T01:43:43.198Z,9.30
2018-10-09T01:46:11.890Z,9.30
2018-10-09T01:48:40.812Z,9.30
2018-10-09T01:51:09.468Z,9.30
2018-10-09T01:53:38.251Z,9.30
2018-10-09T01:56:06.979Z,9.30
2018-10-09T01:58:35.829Z,9.20
2018-10-09T02:01:04.963Z,9.20
2018-10-09T02:03:33.627Z,9.20
2018-10-09T02:06:02.339Z,9.20
2018-10-09T02:08:31.207Z,9.20
2018-10-09T02:10:59.877Z,9.20
2018-10-09T02:13:28.581Z,9.20
2018-10-09T02:15:57.687Z,9.20
2018-10-09T02:18:26.374Z,9.20
2018-10-09T02:20:55.166Z,9.20
2018-10-09T02:23:24.104Z,9.20
2018-10-09T02:25:52.796Z,9.20
2018-10-09T02:28:21.578Z,9.20
2018-10-09T02:30:50.272Z,9.20
2018-10-09T02:33:18.938Z,9.20
2018-10-09T02:35:47.594Z,9.20
2018-10-09T02:38:16.323Z,9.20
2018-10-09T02:40:45.258Z,9.10
2018-10-09T02:43:13.963Z,9.10
2018-10-09T02:45:42.603Z,9.00
2018-10-09T02:48:11.367Z,9.00
2018-10-09T02:50:40.177Z,8.90
2018-10-09T02:53:08.854Z,8.90
2018-10-09T02:55:37.482Z,8.90
2018-10-09T02:58:06.291Z,8.90
2018-10-09T03:00:34.969Z,9.00
2018-10-09T03:03:03.791Z,9.00
2018-10-09T03:05:32.505Z,8.90
2018-10-09T03:08:01.198Z,9.00
2018-10-09T03:10:29.908Z,8.90
2018-10-09T03:12:58.620Z,8.90
2018-10-09T03:15:27.316Z,8.90
2018-10-09T03:17:55.954Z,8.90
2018-10-09T03:20:24.684Z,8.90
2018-10-09T03:22:53.362Z,8.90
2018-10-09T03:25:22.102Z,8.90
2018-10-09T03:27:50.764Z,8.90
2018-10-09T03:30:19.457Z,8.90
2018-10-09T03:32:48.344Z,8.90
2018-10-09T03:35:17.072Z,8.90
2018-10-09T03:37:45.800Z,8.90
2018-10-09T03:40:14.446Z,8.90
2018-10-09T03:42:43.356Z,8.90
2018-10-09T03:45:12.033Z,8.80
2018-10-09T03:47:40.819Z,8.80
2018-10-09T03:50:09.551Z,8.80
2018-10-09T03:52:38.225Z,8.80
2018-10-09T03:55:07.201Z,8.80
2018-10-09T03:57:35.873Z,8.80
2018-10-09T04:00:05.067Z,8.70
2018-10-09T04:02:33.782Z,8.60
2018-10-09T04:05:02.499Z,8.60
2018-10-09T04:07:31.204Z,8.50
2018-10-09T04:09:59.895Z,8.50
2018-10-09T04:12:28.558Z,8.60
2018-10-09T04:14:57.276Z,8.60
2018-10-09T04:17:25.926Z,8.50
2018-10-09T04:19:54.802Z,8.50
2018-10-09T04:22:24.303Z,8.60
2018-10-09T04:24:52.972Z,8.60
2018-10-09T04:27:21.666Z,8.60
2018-10-09T04:29:50.496Z,8.60
2018-10-09T04:32:19.346Z,8.60
2018-10-09T04:34:48.420Z,8.60
2018-10-09T04:37:17.135Z,8.60
2018-10-09T04:39:45.955Z,8.60
2018-10-09T04:42:14.762Z,8.60
2018-10-09T04:44:43.445Z,8.50
2018-10-09T04:47:12.141Z,8.50
2018-10-09T04:49:41.128Z,8.50
2018-10-09T04:52:09.843Z,8.50
2018-10-09T04:54:38.531Z,8.60
2018-10-09T04:57:07.163Z,8.50
2018-10-09T04:59:35.794Z,8.60
2018-10-09T05:02:04.505Z,8.60
2018-10-09T05:04:33.177Z,8.50
2018-10-09T05:07:01.959Z,8.50
2018-10-09T05:09:30.782Z,8.50
2018-10-09T05:11:59.541Z,8.50
2018-10-09T05:14:28.461Z,8.60
2018-10-09T05:16:57.416Z,8.50
2018-10-09T05:19:26.148Z,8.50
2018-10-09T05:21:54.820Z,8.50
2018-10-09T05:24:23.579Z,8.50
2018-10-09T05:26:52.498Z,8.50
2018-10-09T05:29:21.327Z,8.50
2018-10-09T05:31:50.255Z,8.50
2018-10-09T05:34:18.990Z,8.50
2018-10-09T05:36:48.050Z,8.40
2018-10-09T05:39:17.059Z,8.50
2018-10-09T05:41:45.847Z,8.40
2018-10-09T05:44:14.602Z,8.40
2018-10-09T05:46:43.331Z,8.50
2018-10-09T05:49:12.067Z,8.50
2018-10-09T05:51:40.712Z,8.40
2018-10-09T05:54:09.370Z,8.40
2018-10-09T05:56:38.053Z,8.40
2018-10-09T05:59:06.798Z,8.40
2018-10-09T06:01:35.492Z,8.50
2018-10-09T06:04:04.302Z,8.40
2018-10-09T06:06:33.048Z,8.40
2018-10-09T06:09:01.772Z,8.40
2018-10-09T06:11:30.444Z,8.50
2018-10-09T06:13:59.148Z,8.50
2018-10-09T06:16:27.825Z,8.50
2018-10-09T06:18:56.463Z,8.50
2018-10-09T06:21:25.189Z,8.50
2018-10-09T06:23:53.977Z,8.40
2018-10-09T06:26:22.717Z,8.50
2018-10-09T06:28:51.370Z,8.40
2018-10-09T06:31:20.027Z,8.40
2018-10-09T06:33:48.741Z,8.40
2018-10-09T06:36:17.445Z,8.40
2018-10-09T06:38:46.104Z,8.40
2018-10-09T06:41:14.930Z,8.50
2018-10-09T06:43:43.614Z,8.50
2018-10-09T06:46:16.706Z,8.50
2018-10-09T06:48:46.236Z,8.50
2018-10-09T06:51:14.956Z,8.50
2018-10-09T06:53:44.164Z,8.50
2018-10-09T06:56:13.071Z,8.60
2018-10-09T06:58:41.748Z,8.50
2018-10-09T07:01:10.503Z,8.60
2018-10-09T07:03:39.359Z,8.60
2018-10-09T07:06:08.363Z,8.70
2018-10-09T07:08:37.938Z,8.70
2018-10-09T07:11:06.843Z,8.70
2018-10-09T07:13:35.912Z,8.80
2018-10-09T07:16:04.685Z,8.80
2018-10-09T07:18:33.392Z,8.90
2018-10-09T07:21:02.129Z,8.90
2018-10-09T07:23:30.826Z,8.90
2018-10-09T07:25:59.764Z,9.00
2018-10-09T07:28:28.482Z,9.00
2018-10-09T07:30:57.208Z,9.10
2018-10-09T07:33:25.946Z,9.20
2018-10-09T07:35:54.918Z,9.20
2018-10-09T07:38:23.998Z,9.30
2018-10-09T07:40:52.672Z,9.30
2018-10-09T07:43:21.434Z,9.40
2018-10-09T07:45:50.147Z,9.50
2018-10-09T07:48:18.839Z,9.60
2018-10-09T07:50:47.826Z,9.70
2018-10-09T07:53:16.510Z,9.80
2018-10-09T07:55:45.371Z,9.80
2018-10-09T07:58:14.327Z,9.90
2018-10-09T08:00:43.196Z,10.00
2018-10-09T08:03:12.348Z,10.10
2018-10-09T08:05:41.060Z,10.10
2018-10-09T08:08:09.744Z,10.20
2018-10-09T08:10:38.468Z,10.30
2018-10-09T08:13:07.464Z,10.40
2018-10-09T08:15:36.517Z,10.50
2018-10-09T08:18:05.379Z,10.60
2018-10-09T08:20:34.193Z,10.70
2018-10-09T08:23:02.858Z,10.90
2018-10-09T08:25:31.690Z,11.00
2018-10-09T08:28:00.400Z,11.10
2018-10-09T08:30:29.274Z,11.30
2018-10-09T08:32:58.187Z,11.40
2018-10-09T08:35:26.969Z,11.50
2018-10-09T08:37:55.652Z,11.60
2018-10-09T08:40:24.464Z,11.70
2018-10-09T08:42:53.953Z,11.90
2018-10-09T08:45:22.840Z,12.00
2018-10-09T08:47:51.545Z,12.10
2018-10-09T08:50:20.254Z,12.20
2018-10-09T08:52:49.073Z,12.30
2018-10-09T08:55:17.836Z,12.30
2018-10-09T08:57:46.957Z,12.40
2018-10-09T09:00:15.644Z,12.50
2018-10-09T09:02:44.314Z,12.50
2018-10-09T09:05:13.003Z,12.60
2018-10-09T09:07:41.689Z,12.60
2018-10-09T09:10:10.344Z,12.70
2018-10-09T09:12:39.008Z,12.80
2018-10-09T09:15:08.416Z,12.80
2018-10-09T09:17:37.121Z,12.90
2018-10-09T09:20:05.888Z,12.90
2018-10-09T09:22:34.649Z,13.00
2018-10-09T09:25:03.337Z,13.10
2018-10-09T09:27:32.225Z,13.20
2018-10-09T09:30:00.837Z,13.20
2018-10-09T09:32:29.629Z,13.30
2018-10-09T09:34:58.401Z,13.30
2018-10-09T09:37:27.215Z,13.30
2018-10-09T09:39:55.937Z,13.40
2018-10-09T09:42:24.665Z,13.40
2018-10-09T09:44:53.329Z,13.50
2018-10-09T09:47:22.149Z,13.50
2018-10-09T09:49:50.865Z,13.60
2018-10-09T09:52:19.571Z,13.60
2018-10-09T09:54:48.416Z,13.60
2018-10-09T09:57:17.109Z,13.70
2018-10-09T09:59:46.036Z,13.80
2018-10-09T10:02:14.755Z,13.90
2018-10-09T10:04:43.412Z,13.90
2018-10-09T10:07:12.288Z,14.00
2018-10-09T10:09:41.262Z,14.00
2018-10-09T10:12:09.933Z,14.10
2018-10-09T10:14:38.604Z,14.20
2018-10-09T10:17:07.332Z,14.30
2018-10-09T10:19:36.043Z,14.40
2018-10-09T10:22:04.734Z,14.40
2018-10-09T10:24:33.479Z,14.40
2018-10-09T10:27:02.240Z,14.50
2018-10-09T10:29:31.000Z,14.50
2018-10-09T10:31:59.991Z,14.60
2018-10-09T10:34:28.846Z,14.70
2018-10-09T10:36:57.547Z,14.80
2018-10-09T10:39:26.256Z,14.90
2018-10-09T10:41:55.089Z,15.00
2018-10-09T10:44:23.844Z,15.10
2018-10-09T10:46:52.544Z,15.20
2018-10-09T10:49:21.243Z,15.20
2018-10-09T10:51:49.906Z,15.30
2018-10-09T10:54:18.732Z,15.40
2018-10-09T10:56:47.398Z,15.50
2018-10-09T10:59:16.087Z,15.60
2018-10-09T11:01:44.821Z,15.70
2018-10-09T11:04:13.499Z,15.80
2018-10-09T11:06:42.161Z,15.80
2018-10-09T11:09:11.411Z,15.80
2018-10-09T11:11:40.219Z,16.10
2018-10-09T11:14:08.912Z,16.20
2018-10-09T11:16:37.627Z,16.40
2018-10-09T11:19:06.442Z,16.40
2018-10-09T11:21:35.142Z,16.50
2018-10-09T11:24:03.891Z,16.60
2018-10-09T11:26:32.593Z,16.90
2018-10-09T11:29:01.447Z,16.90
2018-10-09T11:31:30.125Z,16.90
2018-10-09T11:33:58.780Z,16.90
2018-10-09T11:36:27.507Z,17.20
2018-10-09T11:38:56.182Z,17.40
2018-10-09T11:41:24.850Z,17.70
2018-10-09T11:43:53.747Z,17.70
2018-10-09T11:46:22.591Z,17.90
2018-10-09T11:48:51.542Z,18.00
2018-10-09T11:51:20.212Z,18.20
2018-10-09T11:53:48.860Z,18.20
2018-10-09T11:56:17.520Z,18.30
2018-10-09T11:58:46.218Z,18.30
2018-10-09T12:01:15.118Z,18.20
2018-10-09T12:03:43.836Z,18.40
2018-10-09T12:06:12.722Z,18.50
2018-10-09T12:08:41.447Z,18.70
2018-10-09T12:11:10.123Z,18.80
2018-10-09T12:13:38.775Z,18.80
2018-10-09T12:16:07.659Z,19.40
2018-10-09T12:18:36.339Z,19.50
2018-10-09T12:21:05.077Z,19.30
2018-10-09T12:23:33.828Z,19.30
2018-10-09T12:26:02.631Z,19.40
2018-10-09T12:28:31.323Z,19.40
2018-10-09T12:31:00.240Z,19.50
2018-10-09T12:33:28.895Z,19.80
2018-10-09T12:35:57.550Z,19.60
2018-10-09T12:38:26.527Z,19.60
2018-10-09T12:40:55.228Z,19.60
2018-10-09T12:43:23.932Z,19.50
2018-10-09T12:45:52.609Z,19.70
2018-10-09T12:48:21.380Z,20.50
2018-10-09T12:50:50.028Z,21.10
2018-10-09T12:53:18.846Z,21.50
2018-10-09T12:55:47.511Z,22.00
2018-10-09T12:58:16.213Z,22.60
2018-10-09T13:00:44.933Z,22.80
2018-10-09T13:03:13.648Z,22.90
2018-10-09T13:05:42.494Z,23.00
2018-10-09T13:08:11.177Z,23.00
2018-10-09T13:10:39.862Z,22.80
2018-10-09T13:13:08.581Z,23.30
2018-10-09T13:15:37.265Z,23.50
2018-10-09T13:18:06.157Z,23.40
2018-10-09T13:20:34.847Z,23.40
2018-10-09T13:23:03.497Z,23.70
2018-10-09T13:25:32.191Z,24.10
2018-10-09T13:28:00.931Z,24.20
2018-10-09T13:30:29.904Z,24.30
2018-10-09T13:32:58.780Z,24.00
2018-10-09T13:35:27.598Z,23.90
2018-10-09T13:37:56.335Z,23.60
2018-10-09T13:40:25.142Z,23.60
2018-10-09T13:42:54.130Z,23.50
2018-10-09T13:45:22.788Z,23.30
2018-10-09T13:47:51.487Z,22.80
2018-10-09T13:50:20.198Z,22.70
2018-10-09T13:52:48.985Z,22.50
2018-10-09T13:55:18.008Z,22.60
2018-10-09T13:57:46.837Z,22.90
2018-10-09T14:00:15.592Z,23.00
2018-10-09T14:02:44.344Z,23.10
2018-10-09T14:05:13.034Z,23.00
2018-10-09T14:07:41.667Z,23.00
2018-10-09T14:10:10.397Z,23.20
2018-10-09T14:12:39.075Z,23.30
2018-10-09T14:15:08.037Z,22.80
2018-10-09T14:17:36.623Z,22.60
2018-10-09T14:20:05.585Z,22.50
2018-10-09T14:22:34.320Z,22.40
2018-10-09T14:25:03.194Z,22.40
2018-10-09T14:27:31.930Z,22.50
2018-10-09T14:30:00.809Z,22.30
2018-10-09T14:32:29.471Z,22.10
2018-10-09T14:34:58.277Z,22.00
2018-10-09T14:37:27.048Z,21.90
2018-10-09T14:39:55.938Z,21.90
2018-10-09T14:42:24.614Z,21.70
2018-10-09T14:44:53.465Z,21.70
2018-10-09T14:47:22.399Z,21.70
2018-10-09T14:49:51.100Z,21.70
2018-10-09T14:52:19.952Z,21.50
2018-10-09T14:54:48.657Z,21.60
2018-10-09T14:57:17.461Z,21.60
2018-10-09T14:59:46.118Z,21.60
2018-10-09T15:02:14.957Z,21.50
2018-10-09T15:04:43.665Z,21.30
2018-10-09T15:07:12.523Z,21.30
2018-10-09T15:09:41.252Z,21.40
2018-10-09T15:12:09.911Z,21.50
2018-10-09T15:14:38.584Z,21.50
2018-10-09T15:17:07.422Z,21.70
2018-10-09T15:19:36.122Z,21.60
2018-10-09T15:22:04.857Z,21.70
2018-10-09T15:24:33.583Z,21.70
2018-10-09T15:27:02.455Z,21.60
2018-10-09T15:29:31.153Z,21.60
2018-10-09T15:31:59.853Z,21.70
2018-10-09T15:34:28.668Z,21.80
2018-10-09T15:36:57.368Z,21.80
2018-10-09T15:39:26.069Z,21.70
2018-10-09T15:41:54.758Z,21.70
2018-10-09T15:44:23.501Z,21.70
2018-10-09T15:46:52.223Z,21.80
2018-10-09T15:49:21.138Z,21.70
2018-10-09T15:51:49.803Z,21.50
2018-10-09T15:54:18.496Z,21.30
2018-10-09T15:56:47.258Z,21.30
2018-10-09T15:59:15.966Z,21.20
2018-10-09T16:01:44.694Z,21.00
2018-10-09T16:04:13.447Z,20.80
2018-10-09T16:06:42.143Z,20.70
2018-10-09T16:09:11.572Z,20.60
2018-10-09T16:11:40.392Z,20.50
2018-10-09T16:14:09.114Z,20.40
2018-10-09T16:16:37.845Z,20.20
2018-10-09T16:19:06.832Z,20.20
2018-10-09T16:21:35.626Z,20.00
2018-10-09T16:24:04.394Z,19.90
2018-10-09T16:26:33.100Z,19.80
2018-10-09T16:29:01.812Z,19.70
2018-10-09T16:31:30.540Z,19.50
2018-10-09T16:33:59.230Z,19.50
2018-10-09T16:36:27.884Z,19.30
2018-10-09T16:38:56.643Z,19.30
2018-10-09T16:41:25.365Z,19.10
2018-10-09T16:43:54.054Z,19.00
2018-10-09T16:46:22.764Z,18.90
2018-10-09T16:48:51.418Z,18.80
2018-10-09T16:51:20.108Z,18.80
2018-10-09T16:53:48.797Z,18.60
2018-10-09T16:56:17.490Z,18.50
2018-10-09T16:58:46.216Z,18.40
2018-10-09T17:01:14.959Z,18.30
2018-10-09T17:03:43.644Z,18.20
2018-10-09T17:06:12.380Z,18.20
2018-10-09T17:08:41.076Z,18.10
2018-10-09T17:11:09.825Z,18.00
2018-10-09T17:13:38.494Z,17.90
2018-10-09T17:16:07.369Z,17.80
2018-10-09T17:18:36.140Z,17.80
2018-10-09T17:21:04.916Z,17.70
2018-10-09T17:23:33.840Z,17.60
2018-10-09T17:26:02.532Z,17.50
2018-10-09T17:28:31.249Z,17.50
2018-10-09T17:30:59.893Z,17.40
2018-10-09T17:33:28.641Z,17.30
2018-10-09T17:35:57.334Z,17.30
2018-10-09T17:38:26.016Z,17.20
2018-10-09T17:40:54.865Z,17.10
2018-10-09T17:43:23.819Z,17.00
2018-10-09T17:45:52.557Z,17.00
2018-10-09T17:48:21.527Z,16.90
2018-10-09T17:50:50.244Z,16.80
2018-10-09T17:53:18.981Z,16.60
2018-10-09T17:55:47.790Z,16.50
2018-10-09T17:58:16.474Z,16.50
2018-10-09T18:00:45.206Z,16.50
2018-10-09T18:03:13.989Z,16.40
2018-10-09T18:05:42.705Z,16.30
2018-10-09T18:08:11.362Z,16.20
2018-10-09T18:10:40.077Z,16.20
2018-10-09T18:13:08.774Z,16.10
2018-10-09T18:15:37.628Z,16.00
2018-10-09T18:18:06.887Z,15.90
2018-10-09T18:20:35.596Z,15.70
2018-10-09T18:23:04.340Z,15.60
2018-10-09T18:25:33.333Z,15.60
2018-10-09T18:28:02.020Z,15.50
2018-10-09T18:30:30.800Z,15.30
2018-10-09T18:32:59.627Z,15.10
2018-10-09T18:35:28.257Z,15.00
2018-10-09T18:37:57.052Z,15.00
2018-10-09T18:40:26.202Z,14.90
2018-10-09T18:42:55.066Z,14.90
2018-10-09T18:45:24.660Z,14.80
2018-10-09T18:47:53.640Z,14.70
2018-10-09T18:50:22.674Z,14.60
2018-10-09T18:52:51.458Z,14.50
2018-10-09T18:55:20.208Z,14.50
2018-10-09T18:57:49.250Z,14.40
2018-10-09T19:00:18.082Z,14.30
2018-10-09T19:02:46.858Z,14.20
2018-10-09T19:05:15.557Z,14.20
2018-10-09T19:07:44.334Z,14.10
2018-10-09T19:10:13.507Z,14.10
2018-10-09T19:12:42.179Z,14.10
2018-10-09T19:15:11.025Z,14.00
2018-10-09T19:17:40.122Z,13.90
2018-10-09T19:20:08.916Z,13.80
2018-10-09T19:22:37.589Z,13.70
2018-10-09T19:25:07.392Z,13.50
2018-10-09T19:27:36.119Z,13.50
2018-10-09T19:30:05.176Z,13.40
2018-10-09T19:32:34.263Z,13.20
2018-10-09T19:35:02.884Z,13.30
2018-10-09T19:37:31.864Z,13.30
2018-10-09T19:40:00.669Z,13.30
2018-10-09T19:42:29.400Z,13.30
2018-10-09T19:44:58.316Z,13.30
2018-10-09T19:47:27.130Z,13.30
2018-10-09T19:49:55.830Z,13.30
2018-10-09T19:52:24.606Z,13.20
2018-10-09T19:54:53.365Z,13.20
2018-10-09T19:57:22.103Z,13.10
2018-10-09T19:59:50.969Z,13.00
2018-10-09T20:02:20.222Z,12.90
2018-10-09T20:04:48.929Z,12.90
2018-10-09T20:07:17.767Z,12.90
2018-10-09T20:09:46.558Z,12.70
2018-10-09T20:12:15.625Z,12.70
2018-10-09T20:14:44.670Z,12.50
2018-10-09T20:17:13.583Z,12.40
2018-10-09T20:19:42.445Z,12.40
2018-10-09T20:22:11.824Z,12.50
2018-10-09T20:24:40.934Z,12.50
2018-10-09T20:27:09.753Z,12.40
2018-10-09T20:29:38.480Z,12.40
2018-10-09T20:32:07.265Z,12.30
2018-10-09T20:34:36.102Z,12.20
2018-10-09T20:37:05.091Z,12.10
2018-10-09T20:39:33.838Z,12.10
2018-10-09T20:42:02.687Z,12.10
2018-10-09T20:44:31.367Z,12.00
2018-10-09T20:47:00.090Z,12.00
2018-10-09T20:49:29.031Z,12.00
2018-10-09T20:51:57.727Z,12.00
2018-10-09T20:54:26.440Z,11.90
2018-10-09T20:56:55.201Z,11.90
2018-10-09T20:59:24.001Z,11.80
2018-10-09T21:01:52.883Z,11.80
2018-10-09T21:04:21.665Z,11.80
2018-10-09T21:06:50.428Z,11.70
2018-10-09T21:09:19.240Z,11.70
2018-10-09T21:11:47.910Z,11.60
2018-10-09T21:14:16.686Z,11.50
2018-10-09T21:16:45.350Z,11.50
2018-10-09T21:19:14.042Z,11.50
2018-10-09T21:21:42.705Z,11.40
2018-10-09T21:24:11.469Z,11.20
2018-10-09T21:26:40.214Z,11.10
2018-10-09T21:29:09.092Z,11.10
2018-10-09T21:31:37.775Z,11.10
2018-10-09T21:34:06.550Z,11.10
2018-10-09T21:36:35.644Z,11.10
2018-10-09T21:39:05.452Z,11.10
2018-10-09T21:41:34.135Z,11.10
2018-10-09T21:44:02.836Z,11.00
2018-10-09T21:46:31.628Z,10.80
2018-10-09T21:49:00.353Z,10.80
2018-10-09T21:51:29.032Z,10.70
2018-10-09T21:53:57.827Z,10.70
2018-10-09T21:56:26.558Z,10.70
2018-10-09T21:58:55.280Z,10.60
2018-10-09T22:01:24.028Z,10.50
2018-10-09T22:03:52.711Z,10.50
2018-10-09T22:06:21.463Z,10.50
2018-10-09T22:08:53.533Z,10.50
2018-10-09T22:11:22.423Z,10.40
2018-10-09T22:13:51.123Z,10.40
2018-10-09T22:16:19.844Z,10.30
2018-10-09T22:18:48.626Z,10.30
2018-10-09T22:21:17.334Z,10.30
2018-10-09T22:23:46.194Z,10.20
2018-10-09T22:26:14.940Z,10.20
2018-10-09T22:28:43.884Z,10.10
2018-10-09T22:31:12.916Z,10.00
2018-10-09T22:33:41.676Z,10.00
2018-10-09T22:36:10.532Z,10.00
2018-10-09T22:38:39.381Z,10.00
2018-10-09T22:41:08.192Z,9.90
2018-10-09T22:43:37.297Z,9.90
2018-10-09T22:46:06.056Z,9.80
2018-10-09T22:48:35.007Z,9.80
2018-10-09T22:51:03.691Z,9.80
2018-10-09T22:53:32.381Z,9.80
2018-10-09T22:56:01.071Z,9.80
2018-10-09T22:58:29.801Z,9.70
2018-10-09T23:00:58.465Z,9.70
2018-10-09T23:03:27.155Z,9.70
2018-10-09T23:05:55.839Z,9.60
2018-10-09T23:08:24.617Z,9.60
2018-10-09T23:10:53.667Z,9.60
2018-10-09T23:13:22.571Z,9.60
2018-10-09T23:15:51.270Z,9.60
2018-10-09T23:18:19.951Z,9.50
2018-10-09T23:20:48.692Z,9.50
2018-10-09T23:23:17.450Z,9.50
2018-10-09T23:25:46.312Z,9.40
2018-10-09T23:28:14.976Z,9.30
2018-10-09T23:30:43.712Z,9.30
2018-10-09T23:33:12.470Z,9.30
2018-10-09T23:35:41.204Z,9.30
2018-10-09T23:38:10.214Z,9.30
2018-10-09T23:40:39.031Z,9.30
2018-10-09T23:43:07.725Z,9.30
2018-10-09T23:45:36.676Z,9.20
2018-10-09T23:48:08.294Z,9.20
2018-10-09T23:50:39.189Z,9.10
2018-10-09T23:53:07.927Z,9.20
2018-10-09T23:55:37.953Z,9.20
2018-10-09T23:58:07.101Z,9.10
